createdAt,value
2018-07-31T00:05:57.162Z,22.30
2018-07-31T00:14:18.178Z,22.29
2018-07-31T00:22:39.331Z,22.25
2018-07-31T00:31:00.456Z,22.23
2018-07-31T00:39:21.480Z,22.22
2018-07-31T00:47:42.547Z,22.12
2018-07-31T00:56:03.586Z,21.97
2018-07-31T01:04:24.915Z,21.83
2018-07-31T01:12:45.978Z,21.75
2018-07-31T01:21:06.984Z,21.65
2018-07-31T01:29:28.084Z,21.42
2018-07-31T01:37:49.122Z,21.31
2018-07-31T01:46:10.147Z,21.16
2018-07-31T01:54:31.148Z,20.99
2018-07-31T02:05:17.967Z,20.96
2018-07-31T02:17:13.627Z,21.00
2018-07-31T02:25:34.647Z,21.03
2018-07-31T02:33:55.691Z,21.04
2018-07-31T02:42:16.783Z,21.00
2018-07-31T02:50:37.812Z,20.99
2018-07-31T03:01:36.732Z,20.98
2018-07-31T03:09:57.795Z,20.84
2018-07-31T03:18:18.818Z,20.72
2018-07-31T03:26:39.844Z,20.50
2018-07-31T03:35:00.898Z,20.35
2018-07-31T03:43:21.946Z,20.19
2018-07-31T03:51:42.975Z,20.02
2018-07-31T04:00:03.995Z,19.96
2018-07-31T04:08:25.030Z,20.01
2018-07-31T04:16:46.127Z,20.11
2018-07-31T04:25:07.126Z,20.09
2018-07-31T04:33:28.153Z,20.06
2018-07-31T04:41:49.210Z,20.11
2018-07-31T04:50:10.244Z,20.37
2018-07-31T04:58:31.278Z,20.50
2018-07-31T05:12:53.315Z,20.85
2018-07-31T05:21:14.355Z,20.92
2018-07-31T05:29:36.426Z,20.90
2018-07-31T05:37:57.498Z,21.03
2018-07-31T05:46:18.536Z,21.19
2018-07-31T05:54:39.603Z,21.57
2018-07-31T06:20:51.007Z,23.00
2018-07-31T06:29:12.031Z,23.66
2018-07-31T06:37:33.083Z,24.65
2018-07-31T06:47:38.313Z,25.71
2018-07-31T06:55:59.360Z,26.20
2018-07-31T07:05:24.640Z,26.54
2018-07-31T07:13:45.700Z,26.80
2018-07-31T07:22:06.707Z,26.91
2018-07-31T07:30:27.823Z,26.79
2018-07-31T07:38:48.955Z,26.99
2018-07-31T07:47:09.996Z,27.26
2018-07-31T07:55:31.431Z,27.38
2018-07-31T08:03:52.458Z,27.61
2018-07-31T08:12:13.562Z,27.97
2018-07-31T08:20:34.692Z,27.96
2018-07-31T08:28:55.737Z,28.11
2018-07-31T08:37:16.778Z,28.84
2018-07-31T08:45:38.135Z,29.61
2018-07-31T08:53:59.535Z,29.96
2018-07-31T09:02:20.593Z,29.66
2018-07-31T09:10:41.956Z,29.66
2018-07-31T09:19:03.057Z,29.85
2018-07-31T09:27:24.175Z,29.97
2018-07-31T09:35:45.208Z,30.34
2018-07-31T09:44:06.242Z,30.86
2018-07-31T09:52:27.266Z,31.36
2018-07-31T10:00:48.642Z,32.35
2018-07-31T10:09:09.769Z,32.27
2018-07-31T10:17:30.933Z,32.52
2018-07-31T10:25:52.252Z,32.24
2018-07-31T10:34:13.274Z,31.93
2018-07-31T10:42:35.381Z,31.78
2018-07-31T10:50:56.584Z,31.73
2018-07-31T10:59:17.598Z,31.76
2018-07-31T11:07:38.621Z,31.69
2018-07-31T11:15:59.888Z,32.01
2018-07-31T11:24:21.818Z,32.22
2018-07-31T11:32:42.960Z,32.04
2018-07-31T11:41:07.335Z,32.19
2018-07-31T11:49:28.383Z,32.17
2018-07-31T11:57:49.967Z,33.14
2018-07-31T12:06:11.105Z,34.48
2018-07-31T12:15:00.227Z,36.07
2018-07-31T12:23:21.568Z,34.84
2018-07-31T12:31:42.875Z,35.74
2018-07-31T12:40:03.973Z,38.68
2018-07-31T12:48:25.125Z,40.99
2018-07-31T12:56:46.188Z,42.67
2018-07-31T13:05:07.307Z,43.73
2018-07-31T13:13:28.617Z,45.84
2018-07-31T13:21:49.725Z,43.96
2018-07-31T13:30:10.886Z,44.16
2018-07-31T13:38:31.966Z,43.75
2018-07-31T13:46:53.354Z,43.19
2018-07-31T13:55:14.644Z,40.35
2018-07-31T14:03:35.698Z,41.70
2018-07-31T14:11:56.839Z,44.42
2018-07-31T14:20:18.172Z,46.49
2018-07-31T14:28:39.258Z,46.56
2018-07-31T14:37:01.829Z,43.02
2018-07-31T14:45:22.906Z,39.56
2018-07-31T14:53:43.959Z,41.00
2018-07-31T15:04:57.889Z,45.39
2018-07-31T15:13:19.242Z,47.11
2018-07-31T15:21:40.624Z,47.28
2018-07-31T15:30:01.701Z,46.40
2018-07-31T15:38:23.026Z,45.81
2018-07-31T15:46:44.109Z,42.63
2018-07-31T15:55:05.187Z,39.63
2018-07-31T16:03:26.399Z,42.36
2018-07-31T16:11:47.604Z,44.87
2018-07-31T16:22:51.998Z,46.01
2018-07-31T16:33:47.984Z,37.56
2018-07-31T16:42:09.083Z,34.36
2018-07-31T16:50:30.147Z,33.61
2018-07-31T16:58:51.252Z,34.32
2018-07-31T17:07:12.624Z,36.69
2018-07-31T17:15:33.749Z,36.51
2018-07-31T17:23:54.880Z,36.01
2018-07-31T17:32:16.013Z,35.80
2018-07-31T17:43:21.359Z,36.63
2018-07-31T17:51:43.483Z,37.81
2018-07-31T18:00:04.546Z,38.30
2018-07-31T18:08:25.572Z,37.79
2018-07-31T18:16:46.626Z,36.54
2018-07-31T18:25:07.663Z,34.86
2018-07-31T18:33:28.695Z,32.41
2018-07-31T18:41:49.744Z,30.76
2018-07-31T18:50:10.837Z,29.59
2018-07-31T18:58:31.839Z,28.73
2018-07-31T19:06:52.963Z,28.11
2018-07-31T19:15:14.229Z,27.53
2018-07-31T19:23:35.230Z,27.16
2018-07-31T19:31:57.355Z,26.75
2018-07-31T19:40:18.396Z,26.41
2018-07-31T19:48:39.480Z,25.99
2018-07-31T19:57:00.524Z,25.72
2018-07-31T20:05:21.939Z,25.44
2018-07-31T20:13:42.944Z,25.23
2018-07-31T20:22:03.966Z,24.99
2018-07-31T20:30:25.005Z,24.76
2018-07-31T20:53:10.674Z,23.99
2018-07-31T21:01:31.688Z,23.79
2018-07-31T21:09:52.803Z,23.52
2018-07-31T21:18:13.858Z,23.26
2018-07-31T21:26:34.839Z,23.08
2018-07-31T21:34:55.835Z,22.90
2018-07-31T21:43:16.894Z,22.73
2018-07-31T21:59:56.909Z,22.70
2018-07-31T22:16:44.539Z,22.24
2018-07-31T22:25:05.617Z,22.16
2018-07-31T22:33:26.600Z,21.96
2018-07-31T22:45:43.575Z,21.63
2018-07-31T22:54:04.622Z,21.46
2018-07-31T23:02:26.719Z,21.29
2018-07-31T23:10:47.844Z,21.08
2018-07-31T23:19:11.879Z,20.92
2018-07-31T23:27:33.928Z,20.75
2018-07-31T23:35:54.932Z,20.51
2018-07-31T23:44:15.932Z,20.36
2018-07-31T23:52:36.984Z,20.14
